Time;durP1;ratioP1;P1;durP2;ratioP2;P2;SDS_P1;SDS_P2;PMS_P1;PMS_P2;Temp;Humidity;BMP_temperature;BMP_pressure;BME280_temperature;BME280_humidity;BME280_pressure;Samples;Min_cycle;Max_cycle;Signal;HPM_P1;HPM_P2
2023/03/24 00:01:41;;;;;;;;;;;8.30;99.90;;;;;;5057288;28;19909;-75
2023/03/24 00:04:06;;;;;;;;;;;8.30;99.90;;;;;;5056668;28;20270;-75
2023/03/24 00:06:33;;;;;;;;;;;8.20;99.90;;;;;;5056552;28;19913;-75
2023/03/24 00:08:59;;;;;;;;;;;8.10;99.90;;;;;;5056966;28;20317;-75
2023/03/24 00:11:25;;;;;;;;;;;8.00;99.90;;;;;;5057005;28;19920;-74
2023/03/24 00:13:51;;;;;;;;;;;7.90;99.90;;;;;;5048529;28;20299;-74
2023/03/24 00:16:18;;;;;;;;;;;7.90;99.90;;;;;;5037173;28;19913;-74
2023/03/24 00:18:49;;;;;;;;;;;7.90;99.90;;;;;;5037010;28;19963;-74
2023/03/24 00:21:14;;;;;;;;;;;7.80;99.90;;;;;;5037197;28;19959;-74
2023/03/24 00:23:42;;;;;;;;;;;7.70;99.90;;;;;;5036945;28;19920;-74
2023/03/24 00:26:13;;;;;;;;;;;7.70;99.90;;;;;;5036741;28;19924;-74
2023/03/24 00:28:41;;;;;;;;;;;7.60;99.90;;;;;;5036941;28;19909;-74
2023/03/24 00:31:07;;;;;;;;;;;7.60;99.90;;;;;;5036952;28;20378;-75
2023/03/24 00:33:34;;;;;;;;;;;7.60;99.90;;;;;;5036722;28;20021;-74
2023/03/24 00:36:04;;;;;;;;;;;7.60;99.90;;;;;;5054610;28;19908;-74
2023/03/24 00:38:31;;;;;;;;;;;7.60;99.90;;;;;;5056759;28;20324;-74
2023/03/24 00:40:57;;;;;;;;;;;7.50;99.90;;;;;;5038626;28;19966;-74
2023/03/24 00:43:23;;;;;;;;;;;7.40;99.90;;;;;;5038898;28;19947;-74
2023/03/24 00:45:51;;;;;;;;;;;7.40;99.90;;;;;;5056701;28;19963;-74
2023/03/24 00:48:18;;;;;;;;;;;7.50;99.90;;;;;;5056563;28;19913;-74
2023/03/24 00:50:45;;;;;;;;;;;7.40;99.90;;;;;;5056355;28;19912;-74
2023/03/24 00:53:14;;;;;;;;;;;7.40;99.90;;;;;;5038374;28;19912;-74
2023/03/24 00:55:41;;;;;;;;;;;7.30;99.90;;;;;;5056304;28;19908;-74
2023/03/24 00:58:06;;;;;;;;;;;7.30;99.90;;;;;;5056251;28;19934;-74
2023/03/24 01:00:32;;;;;;;;;;;7.40;99.90;;;;;;5056177;28;20011;-74
2023/03/24 01:02:58;;;;;;;;;;;7.30;99.90;;;;;;5056198;28;19915;-74
2023/03/24 01:05:26;;;;;;;;;;;7.20;99.90;;;;;;5056158;28;19912;-74
2023/03/24 01:07:55;;;;;;;;;;;7.30;99.90;;;;;;5038008;28;20007;-73
2023/03/24 01:10:25;;;;;;;;;;;7.10;99.90;;;;;;5055931;28;19908;-73
2023/03/24 01:12:52;;;;;;;;;;;7.10;99.90;;;;;;5037654;28;20000;-73
2023/03/24 01:15:19;;;;;;;;;;;7.00;99.90;;;;;;5035966;28;19963;-74
2023/03/24 01:17:47;;;;;;;;;;;7.10;99.90;;;;;;5035725;28;19944;-73
2023/03/24 01:20:13;;;;;;;;;;;7.20;99.90;;;;;;5036127;28;19916;-73
2023/03/24 01:22:40;;;;;;;;;;;7.20;99.90;;;;;;5035589;28;19909;-73
2023/03/24 01:25:08;;;;;;;;;;;7.30;99.90;;;;;;5035802;28;19963;-73
2023/03/24 01:27:35;;;;;;;;;;;7.40;99.90;;;;;;5036031;28;19912;-73
2023/03/24 01:30:03;;;;;;;;;;;7.40;99.90;;;;;;5035588;28;19917;-73
2023/03/24 01:32:29;;;;;;;;;;;7.30;99.90;;;;;;5035728;28;19997;-73
2023/03/24 01:34:55;;;;;;;;;;;7.10;99.90;;;;;;5044602;28;20072;-73
2023/03/24 01:37:22;;;;;;;;;;;7.00;99.90;;;;;;5055324;28;19916;-73
2023/03/24 01:39:48;;;;;;;;;;;6.90;99.90;;;;;;5055604;28;20051;-73
2023/03/24 01:42:22;;;;;;;;;;;7.00;99.90;;;;;;5055492;28;19909;-73
2023/03/24 01:44:49;;;;;;;;;;;7.00;99.90;;;;;;5055475;28;19916;-73
2023/03/24 01:47:16;;;;;;;;;;;7.10;99.90;;;;;;5037445;28;19944;-73
2023/03/24 01:49:47;;;;;;;;;;;7.20;99.90;;;;;;5055285;28;19912;-73
2023/03/24 01:52:16;;;;;;;;;;;7.30;99.90;;;;;;5037331;28;19976;-73
2023/03/24 01:54:53;;;;;;;;;;;7.30;99.90;;;;;;5037246;28;19912;-73
2023/03/24 01:57:24;;;;;;;;;;;7.40;99.90;;;;;;5037165;28;19912;-73
2023/03/24 01:59:51;;;;;;;;;;;7.30;99.90;;;;;;5037173;28;19908;-73
2023/03/24 02:02:43;;;;;;;;;;;7.30;99.90;;;;;;5054943;28;19909;-73
2023/03/24 02:05:12;;;;;;;;;;;7.10;99.90;;;;;;5036883;28;19912;-73
2023/03/24 02:07:45;;;;;;;;;;;7.00;99.90;;;;;;5036946;28;19912;-73
2023/03/24 02:10:14;;;;;;;;;;;7.00;99.90;;;;;;5036961;28;20409;-73
2023/03/24 02:12:41;;;;;;;;;;;7.10;99.90;;;;;;5037000;28;19915;-73
2023/03/24 02:15:08;;;;;;;;;;;7.20;99.90;;;;;;5017874;28;19909;-73
2023/03/24 02:17:38;;;;;;;;;;;7.20;99.90;;;;;;5017262;28;20379;-73
2023/03/24 02:20:22;;;;;;;;;;;7.30;99.90;;;;;;5034878;28;20367;-73
2023/03/24 02:23:08;;;;;;;;;;;7.30;99.90;;;;;;5017043;28;19913;-72
2023/03/24 02:25:58;;;;;;;;;;;7.30;99.90;;;;;;5017022;28;19921;-73
2023/03/24 02:28:27;;;;;;;;;;;7.30;99.90;;;;;;5034317;28;20433;-73
2023/03/24 02:31:12;;;;;;;;;;;7.20;99.90;;;;;;5034825;28;19972;-73
2023/03/24 02:33:56;;;;;;;;;;;7.20;99.90;;;;;;5034755;28;19955;-73
2023/03/24 02:36:41;;;;;;;;;;;7.20;99.90;;;;;;5017114;28;20007;-72
2023/03/24 02:39:08;;;;;;;;;;;7.30;99.90;;;;;;5017050;28;19919;-73
2023/03/24 02:41:34;;;;;;;;;;;7.30;99.90;;;;;;5034687;28;20010;-72
2023/03/24 02:44:02;;;;;;;;;;;7.20;99.90;;;;;;5017012;28;19909;-72
2023/03/24 02:46:35;;;;;;;;;;;7.20;99.90;;;;;;5016954;28;20278;-72
2023/03/24 02:49:13;;;;;;;;;;;7.20;99.90;;;;;;5016795;28;19912;-72
2023/03/24 02:52:11;;;;;;;;;;;7.10;99.90;;;;;;5034709;28;19955;-72
2023/03/24 02:54:47;;;;;;;;;;;7.10;99.90;;;;;;4975266;28;20254;-72
2023/03/24 02:57:16;;;;;;;;;;;7.00;99.90;;;;;;5016934;28;19909;-72
2023/03/24 03:00:18;;;;;;;;;;;6.90;99.90;;;;;;5034368;28;19917;-72
2023/03/24 03:03:40;;;;;;;;;;;7.00;99.90;;;;;;5034513;28;19920;-72
2023/03/24 03:06:11;;;;;;;;;;;7.00;99.90;;;;;;4956762;28;19983;-72
2023/03/24 03:08:37;;;;;;;;;;;6.80;99.90;;;;;;4973189;28;20513;-72
2023/03/24 03:11:04;;;;;;;;;;;6.70;99.90;;;;;;4973324;28;19950;-72
2023/03/24 03:13:33;;;;;;;;;;;6.60;99.90;;;;;;4953899;29;19910;-72
2023/03/24 03:16:05;;;;;;;;;;;6.50;99.90;;;;;;4954014;29;19910;-72
2023/03/24 03:18:42;;;;;;;;;;;6.40;99.90;;;;;;4953954;29;19960;-72
2023/03/24 03:21:14;;;;;;;;;;;6.30;99.90;;;;;;4954074;29;20384;-72
2023/03/24 03:23:44;;;;;;;;;;;6.30;99.90;;;;;;4953834;28;19914;-72
2023/03/24 03:26:12;;;;;;;;;;;6.30;99.90;;;;;;4953777;29;19919;-72
2023/03/24 03:28:42;;;;;;;;;;;6.30;99.90;;;;;;4954218;29;19910;-72
2023/03/24 03:31:13;;;;;;;;;;;6.20;99.90;;;;;;4953922;29;20384;-72
2023/03/24 03:33:52;;;;;;;;;;;6.10;99.90;;;;;;4953922;28;19911;-72
2023/03/24 03:36:27;;;;;;;;;;;6.00;99.90;;;;;;4973187;28;20360;-72
2023/03/24 03:38:55;;;;;;;;;;;6.10;99.90;;;;;;4974320;28;19917;-72
2023/03/24 03:41:21;;;;;;;;;;;6.00;99.90;;;;;;5056851;28;19909;-72
2023/03/24 03:43:48;;;;;;;;;;;6.00;99.90;;;;;;5039705;28;19916;-72
2023/03/24 03:46:15;;;;;;;;;;;5.90;99.90;;;;;;5057422;28;19912;-72
2023/03/24 03:48:42;;;;;;;;;;;5.80;99.90;;;;;;5039641;28;19913;-72
2023/03/24 03:51:08;;;;;;;;;;;5.80;99.90;;;;;;5039664;28;19909;-72
2023/03/24 03:53:40;;;;;;;;;;;5.70;99.90;;;;;;5057283;28;19913;-72
2023/03/24 03:56:06;;;;;;;;;;;5.60;99.90;;;;;;5057467;28;19990;-72
2023/03/24 03:58:38;;;;;;;;;;;5.50;99.90;;;;;;5039543;28;20342;-72
2023/03/24 04:01:05;;;;;;;;;;;5.50;99.90;;;;;;5039362;28;19932;-72
2023/03/24 04:03:34;;;;;;;;;;;5.50;99.90;;;;;;5057548;28;19919;-72
2023/03/24 04:06:18;;;;;;;;;;;5.40;99.90;;;;;;5039148;28;19912;-72
2023/03/24 04:08:44;;;;;;;;;;;5.40;99.90;;;;;;5056911;28;20358;-72
2023/03/24 04:11:45;;;;;;;;;;;5.50;99.90;;;;;;5053006;28;20269;-72
2023/03/24 04:14:14;;;;;;;;;;;5.40;99.90;;;;;;5045326;28;19916;-72
2023/03/24 04:16:45;;;;;;;;;;;5.40;99.90;;;;;;5019355;28;19908;-72
2023/03/24 04:19:14;;;;;;;;;;;5.40;99.90;;;;;;5019251;28;19932;-72
2023/03/24 04:21:41;;;;;;;;;;;5.30;99.90;;;;;;5019433;28;19905;-72
2023/03/24 04:24:15;;;;;;;;;;;5.30;99.90;;;;;;5015875;28;19913;-72
2023/03/24 04:26:46;;;;;;;;;;;5.30;99.90;;;;;;5017174;28;19917;-72
2023/03/24 04:29:21;;;;;;;;;;;5.20;99.90;;;;;;5015844;28;19920;-72
2023/03/24 04:31:52;;;;;;;;;;;5.20;99.90;;;;;;5015761;28;20003;-72
2023/03/24 04:34:20;;;;;;;;;;;5.10;99.90;;;;;;5019451;28;19912;-72
2023/03/24 04:37:11;;;;;;;;;;;5.20;99.90;;;;;;5035407;28;19914;-71
2023/03/24 04:40:09;;;;;;;;;;;5.10;99.90;;;;;;5034659;28;20370;-71
2023/03/24 04:42:41;;;;;;;;;;;5.00;99.90;;;;;;5036409;28;19916;-71
2023/03/24 04:45:07;;;;;;;;;;;5.00;99.90;;;;;;5036552;28;20013;-71
2023/03/24 04:47:53;;;;;;;;;;;5.10;99.90;;;;;;5036783;28;19916;-71
2023/03/24 04:50:41;;;;;;;;;;;5.00;99.90;;;;;;5034645;28;20055;-72
2023/03/24 04:53:12;;;;;;;;;;;5.00;99.90;;;;;;5035179;28;20290;-72
2023/03/24 04:55:57;;;;;;;;;;;5.00;99.90;;;;;;5035020;28;20290;-71
2023/03/24 04:58:44;;;;;;;;;;;5.00;99.90;;;;;;5034904;28;19959;-71
2023/03/24 05:01:10;;;;;;;;;;;5.20;99.90;;;;;;5036348;28;19996;-72
2023/03/24 05:03:40;;;;;;;;;;;5.40;99.90;;;;;;5034942;28;19948;-71
2023/03/24 05:06:07;;;;;;;;;;;5.40;99.90;;;;;;5031505;28;20390;-71
2023/03/24 05:08:32;;;;;;;;;;;5.50;99.90;;;;;;5016415;28;19913;-71
2023/03/24 05:10:58;;;;;;;;;;;5.60;99.90;;;;;;5014907;28;19909;-71
2023/03/24 05:13:25;;;;;;;;;;;5.80;99.90;;;;;;5019965;28;19976;-71
2023/03/24 05:15:55;;;;;;;;;;;6.00;99.90;;;;;;5034836;28;19915;-71
2023/03/24 05:18:31;;;;;;;;;;;6.20;99.90;;;;;;5034349;28;19912;-72
2023/03/24 05:20:58;;;;;;;;;;;6.30;99.90;;;;;;5034587;28;19913;-71
2023/03/24 05:23:25;;;;;;;;;;;6.50;99.90;;;;;;5034542;28;20325;-71
2023/03/24 05:25:52;;;;;;;;;;;6.60;99.90;;;;;;5050876;28;19921;-71
2023/03/24 05:28:21;;;;;;;;;;;6.70;99.90;;;;;;5034548;28;19909;-71
2023/03/24 05:30:47;;;;;;;;;;;6.80;99.90;;;;;;5034472;28;20385;-71
2023/03/24 05:33:25;;;;;;;;;;;6.90;99.90;;;;;;5034286;28;20382;-71
2023/03/24 05:35:51;;;;;;;;;;;7.20;99.90;;;;;;5034232;28;19916;-71
2023/03/24 05:38:17;;;;;;;;;;;7.40;99.90;;;;;;5034104;28;19913;-70
2023/03/24 05:40:47;;;;;;;;;;;7.60;99.90;;;;;;5034126;28;19920;-70
2023/03/24 05:43:14;;;;;;;;;;;7.80;99.90;;;;;;5035657;28;20286;-71
2023/03/24 05:45:46;;;;;;;;;;;8.00;99.90;;;;;;5033943;28;19920;-70
2023/03/24 05:48:22;;;;;;;;;;;8.30;99.90;;;;;;5034259;28;19913;-70
2023/03/24 05:51:05;;;;;;;;;;;8.50;99.90;;;;;;5033989;28;20333;-70
2023/03/24 05:53:31;;;;;;;;;;;8.80;99.90;;;;;;5035271;28;19913;-70
2023/03/24 05:56:11;;;;;;;;;;;9.00;99.90;;;;;;5035238;28;19923;-70
2023/03/24 05:59:00;;;;;;;;;;;9.40;99.90;;;;;;5034980;28;20000;-70
2023/03/24 06:01:47;;;;;;;;;;;9.50;99.90;;;;;;5035056;28;19909;-70
2023/03/24 06:04:21;;;;;;;;;;;9.70;99.90;;;;;;5029837;28;19909;-70
2023/03/24 06:06:49;;;;;;;;;;;9.90;99.90;;;;;;5014122;28;20268;-70
2023/03/24 06:09:20;;;;;;;;;;;10.10;99.90;;;;;;5013843;28;19909;-70
2023/03/24 06:11:46;;;;;;;;;;;10.30;99.90;;;;;;5013826;28;19968;-70
2023/03/24 06:14:13;;;;;;;;;;;10.60;99.90;;;;;;5021847;28;19963;-70
2023/03/24 06:16:52;;;;;;;;;;;10.70;99.90;;;;;;5014172;28;19913;-71
2023/03/24 06:19:23;;;;;;;;;;;10.90;99.90;;;;;;5031155;28;19909;-71
2023/03/24 06:22:16;;;;;;;;;;;11.30;99.90;;;;;;5012218;28;19913;-70
2023/03/24 06:24:48;;;;;;;;;;;11.60;99.90;;;;;;5029579;28;19943;-70
2023/03/24 06:27:20;;;;;;;;;;;11.90;99.90;;;;;;5014869;28;19910;-70
2023/03/24 06:29:46;;;;;;;;;;;12.20;99.90;;;;;;5013697;28;20440;-70
2023/03/24 06:32:17;;;;;;;;;;;12.40;99.90;;;;;;5015520;28;19905;-71
2023/03/24 06:34:43;;;;;;;;;;;12.30;99.90;;;;;;5031082;28;19929;-70
2023/03/24 06:37:32;;;;;;;;;;;12.50;99.90;;;;;;5029424;28;19917;-71
2023/03/24 06:40:00;;;;;;;;;;;13.00;99.90;;;;;;5031702;28;19955;-71
2023/03/24 06:42:30;;;;;;;;;;;12.80;99.90;;;;;;5031344;28;20359;-71
2023/03/24 06:44:56;;;;;;;;;;;13.20;99.90;;;;;;5026416;28;19920;-70
2023/03/24 06:47:22;;;;;;;;;;;13.90;99.90;;;;;;5034320;28;19953;-71
2023/03/24 06:49:48;;;;;;;;;;;13.90;99.90;;;;;;5013099;28;19944;-71
2023/03/24 06:52:14;;;;;;;;;;;14.20;99.90;;;;;;5022352;28;19916;-72
2023/03/24 06:54:43;;;;;;;;;;;14.20;99.90;;;;;;5032946;28;19912;-72
2023/03/24 06:57:09;;;;;;;;;;;14.60;99.90;;;;;;5027842;28;19909;-74
2023/03/24 06:59:55;;;;;;;;;;;14.80;99.90;;;;;;5018258;28;20282;-77
2023/03/24 07:02:22;;;;;;;;;;;14.90;99.90;;;;;;5027267;28;19917;-77
2023/03/24 07:04:52;;;;;;;;;;;15.30;99.90;;;;;;5042228;28;19936;-73
2023/03/24 07:07:27;;;;;;;;;;;15.70;99.90;;;;;;5032384;28;20099;-78
2023/03/24 07:10:13;;;;;;;;;;;16.00;99.90;;;;;;5024516;28;19999;-74
2023/03/24 07:12:39;;;;;;;;;;;16.70;99.90;;;;;;5029460;28;19917;-73
2023/03/24 07:15:06;;;;;;;;;;;16.70;99.90;;;;;;5028909;28;19935;-73
2023/03/24 07:17:32;;;;;;;;;;;16.80;99.90;;;;;;5029229;28;19917;-72
2023/03/24 07:20:17;;;;;;;;;;;17.00;99.90;;;;;;5024978;28;19919;-72
2023/03/24 07:22:49;;;;;;;;;;;17.30;99.90;;;;;;5039168;28;19913;-71
2023/03/24 07:25:35;;;;;;;;;;;17.80;99.90;;;;;;5032708;28;19917;-71
2023/03/24 07:28:16;;;;;;;;;;;18.10;99.90;;;;;;5039117;28;19967;-72
2023/03/24 07:30:41;;;;;;;;;;;18.10;99.90;;;;;;5042324;28;19932;-72
2023/03/24 07:33:11;;;;;;;;;;;18.40;99.90;;;;;;5035816;28;20196;-72
2023/03/24 07:35:39;;;;;;;;;;;18.90;99.90;;;;;;5034595;28;19936;-72
2023/03/24 07:38:05;;;;;;;;;;;19.30;99.90;;;;;;5040144;28;19947;-72
2023/03/24 07:40:34;;;;;;;;;;;19.40;99.90;;;;;;5057661;28;20590;-72
2023/03/24 07:43:04;;;;;;;;;;;19.70;99.90;;;;;;5038143;28;19952;-72
2023/03/24 07:45:52;;;;;;;;;;;20.00;99.90;;;;;;5035584;28;19917;-72
2023/03/24 07:48:17;;;;;;;;;;;19.90;99.90;;;;;;5036982;28;20259;-72
2023/03/24 07:50:43;;;;;;;;;;;20.30;99.90;;;;;;5027877;28;19908;-72
2023/03/24 07:53:29;;;;;;;;;;;20.70;99.90;;;;;;5036817;28;19991;-72
2023/03/24 07:55:55;;;;;;;;;;;20.90;99.90;;;;;;5041686;28;19981;-72
2023/03/24 07:58:23;;;;;;;;;;;21.20;99.90;;;;;;5056200;28;20320;-72
2023/03/24 08:01:09;;;;;;;;;;;21.20;99.90;;;;;;5034714;28;19913;-72
2023/03/24 08:03:40;;;;;;;;;;;21.80;99.90;;;;;;5019292;28;20290;-72
2023/03/24 08:06:25;;;;;;;;;;;21.90;99.90;;;;;;5018943;28;19963;-72
2023/03/24 08:08:55;;;;;;;;;;;22.60;99.90;;;;;;5037001;28;19909;-72
2023/03/24 08:11:21;;;;;;;;;;;22.80;99.90;;;;;;5036890;28;19977;-72
2023/03/24 08:13:46;;;;;;;;;;;22.20;99.90;;;;;;5044190;28;19948;-73
2023/03/24 08:16:15;;;;;;;;;;;22.50;99.90;;;;;;5051528;28;19908;-73
2023/03/24 08:18:45;;;;;;;;;;;23.10;99.90;;;;;;5057430;28;19915;-72
2023/03/24 08:21:11;;;;;;;;;;;23.50;99.90;;;;;;5039401;28;20329;-73
2023/03/24 08:23:37;;;;;;;;;;;23.40;99.90;;;;;;5056934;28;20007;-73
2023/03/24 08:26:02;;;;;;;;;;;24.00;99.90;;;;;;5038476;28;19924;-72
2023/03/24 08:28:28;;;;;;;;;;;24.50;99.90;;;;;;5049353;28;19912;-73
2023/03/24 08:30:54;;;;;;;;;;;25.00;99.90;;;;;;5047228;28;19909;-72
2023/03/24 08:33:20;;;;;;;;;;;25.30;99.90;;;;;;5050477;28;19909;-73
2023/03/24 08:35:45;;;;;;;;;;;25.50;99.90;;;;;;5057157;28;20471;-73
2023/03/24 08:38:13;;;;;;;;;;;25.40;99.90;;;;;;5054903;28;19948;-72
2023/03/24 08:40:40;;;;;;;;;;;26.00;99.90;;;;;;5056748;28;19959;-72
2023/03/24 08:43:09;;;;;;;;;;;26.30;99.90;;;;;;5056283;28;19905;-72
2023/03/24 08:45:35;;;;;;;;;;;26.40;99.90;;;;;;5051769;28;20386;-72
2023/03/24 08:48:03;;;;;;;;;;;26.50;99.90;;;;;;5047849;28;19913;-73
2023/03/24 08:50:31;;;;;;;;;;;26.90;99.90;;;;;;5048248;28;19916;-73
2023/03/24 08:53:10;;;;;;;;;;;27.30;99.90;;;;;;5047142;28;19916;-72
2023/03/24 08:55:40;;;;;;;;;;;27.50;99.90;;;;;;5044166;28;19912;-72
2023/03/24 08:58:07;;;;;;;;;;;27.30;99.90;;;;;;5048044;28;19908;-72
2023/03/24 09:00:33;;;;;;;;;;;26.90;99.90;;;;;;5056210;28;19966;-73
2023/03/24 09:02:59;;;;;;;;;;;27.00;99.90;;;;;;5056458;28;19915;-73
2023/03/24 09:05:26;;;;;;;;;;;27.30;99.90;;;;;;5048418;28;20032;-72
2023/03/24 09:07:52;;;;;;;;;;;27.60;99.90;;;;;;5044948;28;19909;-73
2023/03/24 09:10:18;;;;;;;;;;;27.60;99.90;;;;;;5056438;28;19912;-73
2023/03/24 09:12:44;;;;;;;;;;;27.70;99.90;;;;;;5055442;28;19909;-72
2023/03/24 09:15:11;;;;;;;;;;;28.00;99.90;;;;;;5042253;28;19955;-72
2023/03/24 09:17:37;;;;;;;;;;;27.10;99.90;;;;;;5046775;28;19913;-72
2023/03/24 09:20:21;;;;;;;;;;;26.90;99.90;;;;;;5049527;28;20305;-72
2023/03/24 09:22:51;;;;;;;;;;;27.10;99.90;;;;;;5043205;28;19909;-72
2023/03/24 09:25:18;;;;;;;;;;;27.20;99.90;;;;;;5049262;28;20374;-73
2023/03/24 09:27:44;;;;;;;;;;;27.60;99.90;;;;;;5043410;28;19955;-72
2023/03/24 09:30:11;;;;;;;;;;;27.90;99.90;;;;;;5049497;28;20334;-72
2023/03/24 09:32:36;;;;;;;;;;;28.20;99.90;;;;;;5046396;28;19905;-72
2023/03/24 09:35:03;;;;;;;;;;;28.30;99.90;;;;;;5045519;28;19923;-72
2023/03/24 09:37:29;;;;;;;;;;;28.60;99.90;;;;;;5044381;28;19944;-72
2023/03/24 09:39:58;;;;;;;;;;;28.70;99.90;;;;;;5044090;28;19951;-72
2023/03/24 09:42:26;;;;;;;;;;;28.90;99.90;;;;;;5032192;28;19919;-72
2023/03/24 09:44:56;;;;;;;;;;;29.10;99.90;;;;;;5044889;28;19928;-72
2023/03/24 09:47:26;;;;;;;;;;;29.20;99.90;;;;;;5044090;28;19935;-73
2023/03/24 09:53:37;;;;;;;;;;;29.60;99.90;;;;;;5053386;28;20376;-73
2023/03/24 09:56:10;;;;;;;;;;;29.90;99.90;;;;;;5031844;28;19913;-72
2023/03/24 09:58:40;;;;;;;;;;;30.00;99.90;;;;;;5043223;28;19908;-72
2023/03/24 10:01:16;;;;;;;;;;;29.60;99.90;;;;;;5050588;28;19995;-72
2023/03/24 10:03:42;;;;;;;;;;;29.80;99.90;;;;;;5054941;28;19909;-72
2023/03/24 10:06:14;;;;;;;;;;;30.20;99.90;;;;;;5055024;28;19970;-73
2023/03/24 10:08:42;;;;;;;;;;;30.20;99.90;;;;;;5049937;28;19952;-73
2023/03/24 10:11:28;;;;;;;;;;;30.00;99.90;;;;;;5046153;28;20355;-73
2023/03/24 10:14:09;;;;;;;;;;;29.90;99.90;;;;;;5053047;28;19909;-73
2023/03/24 10:16:41;;;;;;;;;;;30.10;99.90;;;;;;5046668;28;19909;-73
2023/03/24 10:19:19;;;;;;;;;;;30.10;99.90;;;;;;5040352;28;20012;-73
2023/03/24 10:21:56;;;;;;;;;;;30.20;99.90;;;;;;5034315;28;19913;-72
2023/03/24 10:24:30;;;;;;;;;;;29.90;99.90;;;;;;5042301;28;20010;-73
2023/03/24 10:27:01;;;;;;;;;;;29.80;99.90;;;;;;5047733;28;19982;-73
2023/03/24 10:29:28;;;;;;;;;;;30.00;99.90;;;;;;5040320;28;19913;-73
2023/03/24 10:32:13;;;;;;;;;;;29.60;99.90;;;;;;5047638;28;20475;-73
2023/03/24 10:34:41;;;;;;;;;;;29.30;99.90;;;;;;5048011;28;20358;-73
2023/03/24 10:37:08;;;;;;;;;;;29.40;99.90;;;;;;5045990;28;20387;-73
2023/03/24 10:39:34;;;;;;;;;;;29.20;99.90;;;;;;5054320;28;19916;-73
2023/03/24 10:42:00;;;;;;;;;;;29.30;99.90;;;;;;5045707;28;19909;-73
2023/03/24 10:44:26;;;;;;;;;;;29.20;99.90;;;;;;5034089;28;19905;-73
2023/03/24 10:47:03;;;;;;;;;;;29.80;99.90;;;;;;5039684;28;19917;-72
2023/03/24 10:49:40;;;;;;;;;;;30.40;99.90;;;;;;5036634;28;19923;-73
2023/03/24 10:56:15;;;;;;;;;;;30.30;99.90;;;;;;4995346;28;19977;-74
2023/03/24 10:58:42;;;;;;;;;;;30.20;99.90;;;;;;5039628;28;19909;-75
2023/03/24 11:01:20;;;;;;;;;;;30.70;99.90;;;;;;5054451;28;19915;-75
2023/03/24 11:03:48;;;;;;;;;;;30.90;99.90;;;;;;5058006;28;19963;-76
2023/03/24 11:06:19;;;;;;;;;;;30.70;99.90;;;;;;5058169;28;19909;-75
2023/03/24 11:08:46;;;;;;;;;;;30.20;99.90;;;;;;5058402;28;19908;-75
